Time;durP1;ratioP1;P1;durP2;ratioP2;P2;SDS_P1;SDS_P2;PMS_P1;PMS_P2;Temp;Humidity;BMP_temperature;BMP_pressure;BME280_temperature;BME280_humidity;BME280_pressure;Samples;Min_cycle;Max_cycle;Signal;HPM_P1;HPM_P2
2023/08/26 00:02:19;;;;;;;;;;;;;;;19.12;100.00;96055.81;5104176;28;19938;-77
2023/08/26 00:04:46;;;;;;;;;;;;;;;19.06;100.00;96056.94;5105257;28;20227;-78
2023/08/26 00:07:12;;;;;;;;;;;;;;;19.03;100.00;96068.94;5105189;28;20143;-71
2023/08/26 00:09:38;;;;;;;;;;;;;;;19.01;100.00;96059.66;5104078;28;19936;-81
2023/08/26 00:12:04;;;;;;;;;;;;;;;19.00;100.00;96066.84;5104569;28;19941;-81
2023/08/26 00:14:30;;;;;;;;;;;;;;;18.97;100.00;96048.81;5103744;28;19995;-80
2023/08/26 00:16:56;;;;;;;;;;;;;;;18.92;100.00;96032.91;5105838;28;19952;-80
2023/08/26 00:19:22;;;;;;;;;;;;;;;18.90;100.00;96029.75;5105188;28;19989;-80
2023/08/26 00:21:50;;;;;;;;;;;;;;;18.89;100.00;96032.69;5104939;28;19960;-80
2023/08/26 00:24:17;;;;;;;;;;;;;;;18.85;100.00;96032.44;5104945;28;19933;-81
2023/08/26 00:26:43;;;;;;;;;;;;;;;18.84;100.00;96031.66;5104836;28;20005;-82
2023/08/26 00:29:08;;;;;;;;;;;;;;;18.87;100.00;96024.97;5103699;28;19999;-77
2023/08/26 00:31:34;;;;;;;;;;;;;;;18.94;100.00;96025.47;5103731;28;20121;-81
2023/08/26 00:34:03;;;;;;;;;;;;;;;19.01;100.00;96015.28;5104900;28;19980;-80
2023/08/26 00:36:30;;;;;;;;;;;;;;;19.11;100.00;96019.69;5087460;28;19944;-81
2023/08/26 00:38:57;;;;;;;;;;;;;;;19.16;100.00;96009.00;5104982;28;20217;-81
2023/08/26 00:41:23;;;;;;;;;;;;;;;19.21;100.00;96024.09;5103529;28;20166;-81
2023/08/26 00:43:48;;;;;;;;;;;;;;;19.26;100.00;96042.66;5104316;28;19941;-73
2023/08/26 00:46:14;;;;;;;;;;;;;;;19.29;100.00;96052.72;5104909;28;19934;-73
2023/08/26 00:48:41;;;;;;;;;;;;;;;19.33;100.00;96066.25;5103371;28;19961;-72
2023/08/26 00:51:07;;;;;;;;;;;;;;;19.34;100.00;96065.16;5104523;28;19935;-71
2023/08/26 00:53:34;;;;;;;;;;;;;;;19.24;100.00;96060.75;5104991;28;19966;-72
2023/08/26 00:56:00;;;;;;;;;;;;;;;19.19;100.00;96060.78;5105066;28;19938;-71
2023/08/26 00:58:26;;;;;;;;;;;;;;;19.21;100.00;96072.75;5104418;28;19940;-73
2023/08/26 01:00:52;;;;;;;;;;;;;;;19.19;100.00;96111.31;5104126;28;19939;-71
2023/08/26 01:03:18;;;;;;;;;;;;;;;19.11;100.00;96135.84;5105266;28;19936;-76
2023/08/26 01:05:44;;;;;;;;;;;;;;;19.04;100.00;96133.50;5104463;28;19998;-80
2023/08/26 01:08:10;;;;;;;;;;;;;;;19.00;100.00;96108.56;5104301;28;19954;-80
2023/08/26 01:10:45;;;;;;;;;;;;;;;19.03;100.00;96110.66;5104886;28;19937;-77
2023/08/26 01:13:12;;;;;;;;;;;;;;;19.05;100.00;96105.88;5104377;28;19974;-79
2023/08/26 01:15:41;;;;;;;;;;;;;;;19.07;100.00;96117.00;5102962;28;19966;-78
2023/08/26 01:18:08;;;;;;;;;;;;;;;19.11;100.00;96117.22;5103201;28;19938;-79
2023/08/26 01:20:34;;;;;;;;;;;;;;;19.14;100.00;96117.47;5104702;28;19948;-77
2023/08/26 01:23:04;;;;;;;;;;;;;;;19.14;100.00;96106.84;5103216;28;20221;-73
2023/08/26 01:25:30;;;;;;;;;;;;;;;19.14;100.00;96106.84;5107051;28;19960;-74
2023/08/26 01:27:57;;;;;;;;;;;;;;;19.16;100.00;96103.91;5108320;28;19952;-74
2023/08/26 01:30:25;;;;;;;;;;;;;;;19.13;100.00;96099.94;5108233;28;19958;-75
2023/08/26 01:32:51;;;;;;;;;;;;;;;19.08;100.00;96096.53;5107126;28;20122;-74
2023/08/26 01:35:20;;;;;;;;;;;;;;;19.06;100.00;96094.94;5107204;28;20006;-75
2023/08/26 01:37:47;;;;;;;;;;;;;;;19.10;100.00;96102.38;5106972;28;19942;-73
2023/08/26 01:40:13;;;;;;;;;;;;;;;19.13;100.00;96105.25;5108082;28;19941;-76
2023/08/26 01:42:40;;;;;;;;;;;;;;;19.18;100.00;96094.56;5107956;28;20234;-70
2023/08/26 01:45:06;;;;;;;;;;;;;;;19.22;100.00;96098.25;5108277;28;19935;-70
2023/08/26 01:47:32;;;;;;;;;;;;;;;19.26;100.00;96103.81;5107887;28;19956;-71
2023/08/26 01:49:58;;;;;;;;;;;;;;;19.26;100.00;96111.78;5107360;28;19942;-72
2023/08/26 01:52:24;;;;;;;;;;;;;;;19.27;100.00;96106.16;5106726;28;19943;-71
2023/08/26 01:54:49;;;;;;;;;;;;;;;19.28;100.00;96104.31;5107683;28;19947;-70
2023/08/26 01:57:15;;;;;;;;;;;;;;;19.29;100.00;96123.72;5108008;28;19947;-69
2023/08/26 01:59:42;;;;;;;;;;;;;;;19.29;100.00;96118.41;5107747;28;19938;-73
2023/08/26 02:02:08;;;;;;;;;;;;;;;19.29;100.00;96123.72;5108391;28;19937;-70
2023/08/26 02:04:33;;;;;;;;;;;;;;;19.29;100.00;96121.84;5106948;28;19933;-69
2023/08/26 02:06:59;;;;;;;;;;;;;;;19.29;100.00;96115.75;5108045;28;19941;-70
2023/08/26 02:09:25;;;;;;;;;;;;;;;19.28;100.00;96104.31;5108000;28;19937;-70
2023/08/26 02:11:51;;;;;;;;;;;;;;;19.29;100.00;96121.84;5089473;28;19946;-70
2023/08/26 02:14:17;;;;;;;;;;;;;;;19.29;100.00;96116.53;5107248;28;19964;-70
2023/08/26 02:16:43;;;;;;;;;;;;;;;19.29;100.00;96121.06;5106300;28;19947;-76
2023/08/26 02:19:09;;;;;;;;;;;;;;;19.28;100.00;96120.28;5106223;28;19959;-73
2023/08/26 02:21:34;;;;;;;;;;;;;;;19.27;100.00;96126.66;5108052;28;20211;-77
2023/08/26 02:24:00;;;;;;;;;;;;;;;19.27;100.00;96132.75;5107216;28;19942;-79
2023/08/26 02:26:26;;;;;;;;;;;;;;;19.26;100.00;96123.19;5106819;28;20149;-79
2023/08/26 02:28:52;;;;;;;;;;;;;;;19.26;100.00;96117.88;5089252;28;19951;-76
2023/08/26 02:31:18;;;;;;;;;;;;;;;19.26;100.00;96128.53;5107137;28;20143;-81
2023/08/26 02:33:44;;;;;;;;;;;;;;;19.26;100.00;96135.72;5105958;28;20143;-72
2023/08/26 02:36:10;;;;;;;;;;;;;;;19.25;100.00;96121.59;5107408;28;20211;-81
2023/08/26 02:38:36;;;;;;;;;;;;;;;19.25;100.00;96123.47;5105777;28;19944;-83
2023/08/26 02:41:02;;;;;;;;;;;;;;;19.25;100.00;96118.94;5105818;28;20272;-81
2023/08/26 02:43:28;;;;;;;;;;;;;;;19.24;100.00;96124.56;5107665;28;19938;-83
2023/08/26 02:45:54;;;;;;;;;;;;;;;19.23;100.00;96110.47;5106883;28;19944;-78
2023/08/26 02:48:21;;;;;;;;;;;;;;;19.21;100.00;96104.66;5106695;28;20121;-80
2023/08/26 02:50:46;;;;;;;;;;;;;;;19.21;100.00;96114.47;5088784;28;19940;-83
2023/08/26 02:53:13;;;;;;;;;;;;;;;19.18;100.00;96121.16;5106662;28;19950;-79
2023/08/26 02:55:39;;;;;;;;;;;;;;;19.17;100.00;96132.88;5129293;22;19969;-73
2023/08/26 02:58:05;;;;;;;;;;;;;;;19.17;100.00;96132.88;5106873;28;20008;-73
2023/08/26 03:00:33;;;;;;;;;;;;;;;19.18;100.00;96123.03;5106525;28;19983;-74
2023/08/26 03:02:59;;;;;;;;;;;;;;;19.17;100.00;96135.53;5106457;28;19934;-73
2023/08/26 03:05:24;;;;;;;;;;;;;;;19.17;100.00;96129.41;5107221;28;19982;-73
2023/08/26 03:07:50;;;;;;;;;;;;;;;19.15;100.00;96145.66;5106264;28;19966;-73
2023/08/26 03:10:16;;;;;;;;;;;;;;;19.15;100.00;96147.50;5106862;28;19934;-73
2023/08/26 03:12:42;;;;;;;;;;;;;;;19.15;100.00;96142.19;5105774;28;20209;-70
2023/08/26 03:15:08;;;;;;;;;;;;;;;19.15;100.00;96150.16;5104915;28;19953;-73
2023/08/26 03:17:34;;;;;;;;;;;;;;;19.14;100.00;96151.22;5106200;28;19949;-73
2023/08/26 03:20:00;;;;;;;;;;;;;;;19.12;100.00;96154.16;5106048;28;19945;-73
2023/08/26 03:22:26;;;;;;;;;;;;;;;19.12;100.00;96140.09;5106515;28;19975;-73
2023/08/26 03:24:52;;;;;;;;;;;;;;;19.11;100.00;96133.16;5106518;28;19967;-74
2023/08/26 03:27:18;;;;;;;;;;;;;;;19.09;100.00;96124.69;5106782;28;19936;-73
2023/08/26 03:29:44;;;;;;;;;;;;;;;19.06;100.00;96134.03;5106474;28;19942;-73
2023/08/26 03:32:09;;;;;;;;;;;;;;;19.03;100.00;96138.03;5105885;28;19935;-73
2023/08/26 03:34:35;;;;;;;;;;;;;;;19.02;100.00;96130.34;5106564;28;19961;-72
2023/08/26 03:37:01;;;;;;;;;;;;;;;19.00;100.00;96129.81;5106352;28;19940;-72
2023/08/26 03:39:27;;;;;;;;;;;;;;;18.96;100.00;96128.78;5105794;28;19952;-73
2023/08/26 03:41:53;;;;;;;;;;;;;;;18.94;100.00;96141.56;5105662;28;19938;-73
2023/08/26 03:44:19;;;;;;;;;;;;;;;18.90;100.00;96135.22;5105724;28;20154;-73
2023/08/26 03:46:45;;;;;;;;;;;;;;;18.89;100.00;96134.44;5104725;28;20010;-73
2023/08/26 03:49:10;;;;;;;;;;;;;;;18.85;100.00;96138.72;5106031;28;19939;-78
2023/08/26 03:51:36;;;;;;;;;;;;;;;18.81;100.00;96146.44;5105536;28;20224;-73
2023/08/26 03:54:02;;;;;;;;;;;;;;;18.78;100.00;96144.34;5105376;28;19945;-73
2023/08/26 03:56:28;;;;;;;;;;;;;;;18.76;100.00;96150.97;5105539;28;19971;-72
2023/08/26 03:58:56;;;;;;;;;;;;;;;18.73;100.00;96156.84;5105331;28;20164;-73
2023/08/26 04:01:22;;;;;;;;;;;;;;;18.70;100.00;96157.41;5105841;28;19944;-73
2023/08/26 04:03:52;;;;;;;;;;;;;;;18.66;100.00;96173.09;5105451;28;19944;-73
2023/08/26 04:06:18;;;;;;;;;;;;;;;18.64;100.00;96169.91;5105214;28;19943;-75
2023/08/26 04:08:44;;;;;;;;;;;;;;;18.63;100.00;96171.78;5105097;28;20139;-76
2023/08/26 04:11:10;;;;;;;;;;;;;;;18.64;100.00;96176.00;5104091;28;19936;-76
2023/08/26 04:13:36;;;;;;;;;;;;;;;18.66;100.00;96175.75;5105601;28;19940;-76
2023/08/26 04:16:03;;;;;;;;;;;;;;;18.64;100.00;96181.31;5104954;28;19962;-76
2023/08/26 04:18:30;;;;;;;;;;;;;;;18.64;100.00;96183.19;5104890;28;20191;-76
2023/08/26 04:20:56;;;;;;;;;;;;;;;18.62;100.00;96178.16;5104860;28;19942;-78
2023/08/26 04:23:22;;;;;;;;;;;;;;;18.63;100.00;96185.06;5104974;28;20250;-79
2023/08/26 04:25:50;;;;;;;;;;;;;;;18.62;100.00;96170.19;5105470;28;19942;-81
2023/08/26 04:28:16;;;;;;;;;;;;;;;18.63;100.00;96178.97;5105352;28;19936;-78
2023/08/26 04:30:42;;;;;;;;;;;;;;;18.63;100.00;96176.31;5105599;28;20118;-78
2023/08/26 04:33:08;;;;;;;;;;;;;;;18.60;100.00;96167.00;5104758;28;19938;-78
2023/08/26 04:35:34;;;;;;;;;;;;;;;18.59;100.00;96170.75;5105225;28;19953;-78
2023/08/26 04:38:00;;;;;;;;;;;;;;;18.57;100.00;96180.06;5104720;28;19989;-79
2023/08/26 04:40:26;;;;;;;;;;;;;;;18.56;100.00;96184.59;5104723;28;20000;-78
2023/08/26 04:42:53;;;;;;;;;;;;;;;18.55;100.00;96193.59;5105215;28;19951;-77
2023/08/26 04:45:19;;;;;;;;;;;;;;;18.53;100.00;96190.44;5105482;28;19991;-74
2023/08/26 04:47:46;;;;;;;;;;;;;;;18.51;100.00;96197.09;5104569;28;19931;-73
2023/08/26 04:50:12;;;;;;;;;;;;;;;18.49;100.00;96197.34;5104555;28;19942;-73
2023/08/26 04:52:39;;;;;;;;;;;;;;;18.48;100.00;96203.75;5104538;28;20237;-73
2023/08/26 04:55:06;;;;;;;;;;;;;;;18.47;100.00;96196.84;5104461;28;19954;-73
2023/08/26 04:57:32;;;;;;;;;;;;;;;18.46;100.00;96206.66;5104275;28;19974;-73
2023/08/26 04:59:58;;;;;;;;;;;;;;;18.46;100.00;96211.19;5104616;28;19944;-73
2023/08/26 05:02:23;;;;;;;;;;;;;;;18.44;100.00;96214.13;5104483;28;19936;-75
2023/08/26 05:04:50;;;;;;;;;;;;;;;18.41;100.00;96217.31;5104976;28;19963;-76
2023/08/26 05:07:16;;;;;;;;;;;;;;;18.41;100.00;96217.31;5104278;28;19950;-76
2023/08/26 05:09:42;;;;;;;;;;;;;;;18.40;100.00;96225.56;5104307;28;19937;-76
2023/08/26 05:12:08;;;;;;;;;;;;;;;18.39;100.00;96237.25;5104328;28;20221;-76
2023/08/26 05:14:34;;;;;;;;;;;;;;;18.38;100.00;96231.13;5103148;28;19954;-76
2023/08/26 05:17:00;;;;;;;;;;;;;;;18.38;100.00;96231.13;5104333;28;19941;-76
2023/08/26 05:19:26;;;;;;;;;;;;;;;18.39;100.00;96222.09;5104243;28;19936;-72
2023/08/26 05:21:51;;;;;;;;;;;;;;;18.37;100.00;96203.00;5104217;28;19940;-77
2023/08/26 05:24:17;;;;;;;;;;;;;;;18.38;100.00;96219.72;5104785;28;19948;-76
2023/08/26 05:26:43;;;;;;;;;;;;;;;18.39;100.00;96211.47;5104966;28;19982;-76
2023/08/26 05:29:09;;;;;;;;;;;;;;;18.39;100.00;96211.47;5104704;28;19937;-76
2023/08/26 05:31:35;;;;;;;;;;;;;;;18.49;100.00;96217.81;5104633;28;19931;-77
2023/08/26 05:34:01;;;;;;;;;;;;;;;18.65;100.00;96211.34;5104972;28;19946;-77
2023/08/26 05:36:27;;;;;;;;;;;;;;;18.77;100.00;96203.84;5104237;28;20025;-76
2023/08/26 05:38:53;;;;;;;;;;;;;;;19.06;100.00;96206.56;5102948;28;20324;-73
2023/08/26 05:41:19;;;;;;;;;;;;;;;19.38;100.00;96207.09;5104900;28;19943;-72
2023/08/26 05:43:44;;;;;;;;;;;;;;;19.60;100.00;96215.41;5104023;28;19945;-72
2023/08/26 05:46:10;;;;;;;;;;;;;;;19.64;100.00;96224.41;5103946;28;19945;-72
2023/08/26 05:48:36;;;;;;;;;;;;;;;19.69;100.00;96220.91;5104754;28;19935;-73
2023/08/26 05:51:02;;;;;;;;;;;;;;;19.78;100.00;96216.59;5103929;28;19937;-72
2023/08/26 05:53:28;;;;;;;;;;;;;;;19.78;100.00;96221.94;5104156;28;19938;-73
2023/08/26 05:55:54;;;;;;;;;;;;;;;19.78;100.00;96219.28;5104096;28;20157;-73
2023/08/26 05:58:20;;;;;;;;;;;;;;;19.81;100.00;96209.91;5103922;28;19953;-76
2023/08/26 06:00:47;;;;;;;;;;;;;;;19.77;100.00;96204.38;5103281;28;19937;-72
2023/08/26 06:03:13;;;;;;;;;;;;;;;19.76;100.00;96205.44;5103803;28;19951;-72
2023/08/26 06:05:39;;;;;;;;;;;;;;;19.90;100.00;96205.56;5103734;28;19969;-72
2023/08/26 06:08:07;;;;;;;;;;;;;;;20.07;100.00;96208.56;5103714;28;19950;-72
2023/08/26 06:10:33;;;;;;;;;;;;;;;20.38;100.00;96213.50;5105107;28;19965;-72
2023/08/26 06:12:59;;;;;;;;;;;;;;;20.76;100.00;96215.44;5108373;28;19945;-72
2023/08/26 06:15:25;;;;;;;;;;;;;;;21.02;100.00;96215.81;5107386;28;20189;-74
2023/08/26 06:17:51;;;;;;;;;;;;;;;21.22;100.00;96215.50;5107096;28;19940;-71
2023/08/26 06:20:16;;;;;;;;;;;;;;;21.43;100.00;96213.31;5107383;28;20244;-71
2023/08/26 06:22:42;;;;;;;;;;;;;;;21.52;100.00;96202.75;5107273;28;20242;-72
2023/08/26 06:25:09;;;;;;;;;;;;;;;21.54;100.00;96213.94;5107246;28;19938;-71
2023/08/26 06:27:34;;;;;;;;;;;;;;;21.34;100.00;96216.94;5106866;28;19948;-72
2023/08/26 06:30:03;;;;;;;;;;;;;;;20.95;100.00;96223.41;5107364;28;19937;-71
2023/08/26 06:32:29;;;;;;;;;;;;;;;20.62;100.00;96218.81;5107082;28;19936;-71
2023/08/26 06:34:55;;;;;;;;;;;;;;;20.33;100.00;96221.56;5106964;28;19958;-74
2023/08/26 06:37:21;;;;;;;;;;;;;;;20.16;100.00;96224.69;5106923;28;19951;-78
2023/08/26 06:39:47;;;;;;;;;;;;;;;20.02;100.00;96215.81;5106898;28;19943;-78
2023/08/26 06:42:13;;;;;;;;;;;;;;;19.90;100.00;96223.41;5105754;28;19949;-80
2023/08/26 06:44:38;;;;;;;;;;;;;;;19.83;100.00;96237.03;5106839;28;19946;-79
2023/08/26 06:47:05;;;;;;;;;;;;;;;19.77;100.00;96238.16;5107002;28;19942;-77
2023/08/26 06:49:31;;;;;;;;;;;;;;;19.74;100.00;96233.38;5106672;28;20119;-78
2023/08/26 06:51:57;;;;;;;;;;;;;;;19.76;100.00;96236.56;5107195;28;19942;-70
2023/08/26 06:54:23;;;;;;;;;;;;;;;19.79;100.00;96236.81;5107433;28;19941;-80
2023/08/26 06:56:49;;;;;;;;;;;;;;;19.89;100.00;96229.81;5106594;28;19968;-78
2023/08/26 06:59:14;;;;;;;;;;;;;;;20.06;100.00;96219.50;5105420;28;19995;-78
2023/08/26 07:01:40;;;;;;;;;;;;;;;20.38;100.00;96220.69;5106448;28;19937;-79
2023/08/26 07:04:07;;;;;;;;;;;;;;;20.70;100.00;96216.56;5105882;28;19961;-78
2023/08/26 07:06:33;;;;;;;;;;;;;;;20.81;100.00;96223.34;5106399;28;19944;-78
2023/08/26 07:08:59;;;;;;;;;;;;;;;20.73;100.00;96221.34;5106180;28;19952;-78
2023/08/26 07:11:25;;;;;;;;;;;;;;;20.59;100.00;96222.03;5106492;28;19964;-77
2023/08/26 07:13:51;;;;;;;;;;;;;;;20.50;100.00;96215.75;5106251;28;19938;-77
2023/08/26 07:16:17;;;;;;;;;;;;;;;20.41;100.00;96210.28;5106673;28;20060;-77
2023/08/26 07:18:43;;;;;;;;;;;;;;;20.36;100.00;96220.19;5106130;28;19962;-77
2023/08/26 07:21:09;;;;;;;;;;;;;;;20.36;100.00;96220.19;5106058;28;19976;-77
2023/08/26 07:23:35;;;;;;;;;;;;;;;20.36;100.00;96217.53;5105971;28;19940;-77
2023/08/26 07:26:01;;;;;;;;;;;;;;;20.35;100.00;96230.06;5105967;28;19942;-77
2023/08/26 07:28:27;;;;;;;;;;;;;;;20.43;100.00;96213.44;5105941;28;20129;-80
2023/08/26 07:30:53;;;;;;;;;;;;;;;20.50;100.00;96197.09;5105937;28;19936;-73
2023/08/26 07:33:19;;;;;;;;;;;;;;;20.45;100.00;96175.84;5105942;28;19939;-81
2023/08/26 07:35:45;;;;;;;;;;;;;;;20.38;100.00;96186.88;5106357;28;20025;-81
2023/08/26 07:38:11;;;;;;;;;;;;;;;20.36;100.00;96197.00;5105768;28;20222;-79
2023/08/26 07:40:37;;;;;;;;;;;;;;;20.37;100.00;96197.78;5105667;28;19979;-79
2023/08/26 07:43:03;;;;;;;;;;;;;;;20.36;100.00;96197.00;5106469;28;19940;-80
2023/08/26 07:45:29;;;;;;;;;;;;;;;20.33;100.00;96196.81;5105660;28;19936;-80
2023/08/26 07:47:57;;;;;;;;;;;;;;;20.35;100.00;96194.63;5105537;28;19936;-74
2023/08/26 07:50:22;;;;;;;;;;;;;;;20.46;100.00;96191.56;5105495;28;19939;-74
2023/08/26 07:52:48;;;;;;;;;;;;;;;20.70;100.00;96188.06;5105434;28;20107;-74
2023/08/26 07:55:14;;;;;;;;;;;;;;;20.74;100.00;96193.59;5105850;28;19953;-74
2023/08/26 07:57:40;;;;;;;;;;;;;;;20.75;100.00;96209.31;5105198;28;20165;-75
2023/08/26 08:00:06;;;;;;;;;;;;;;;20.67;100.00;96205.41;5104188;28;19958;-74
2023/08/26 08:02:32;;;;;;;;;;;;;;;20.59;100.00;96191.94;5105242;28;19942;-74
2023/08/26 08:04:58;;;;;;;;;;;;;;;20.48;100.00;96200.06;5104906;28;19945;-75
2023/08/26 08:07:24;;;;;;;;;;;;;;;20.44;100.00;96207.03;5104603;28;19955;-81
2023/08/26 08:09:50;;;;;;;;;;;;;;;20.46;100.00;96193.44;5104009;28;19946;-79
2023/08/26 08:12:16;;;;;;;;;;;;;;;20.49;100.00;96200.84;5104805;28;20278;-80
2023/08/26 08:14:41;;;;;;;;;;;;;;;20.47;100.00;96195.00;5105538;28;19937;-81
2023/08/26 08:17:07;;;;;;;;;;;;;;;20.48;100.00;96192.06;5104318;28;19960;-79
2023/08/26 08:19:37;;;;;;;;;;;;;;;20.55;100.00;96191.69;5104921;28;19938;-79
2023/08/26 08:22:03;;;;;;;;;;;;;;;20.58;100.00;96204.50;5104753;28;19948;-80
2023/08/26 08:24:28;;;;;;;;;;;;;;;20.70;100.00;96208.59;5104812;28;20130;-79
2023/08/26 08:26:54;;;;;;;;;;;;;;;20.76;100.00;96199.44;5104845;28;19940;-82
2023/08/26 08:29:20;;;;;;;;;;;;;;;20.80;100.00;96211.09;5104416;28;20161;-83
2023/08/26 08:31:46;;;;;;;;;;;;;;;20.76;100.00;96210.09;5104759;28;19935;-81
2023/08/26 08:34:12;;;;;;;;;;;;;;;20.66;100.00;96211.03;5104275;28;19946;-81
2023/08/26 08:36:38;;;;;;;;;;;;;;;20.64;100.00;96194.53;5105333;28;20022;-82
2023/08/26 08:39:03;;;;;;;;;;;;;;;20.75;100.00;96190.66;5104591;28;19936;-82
2023/08/26 08:41:33;;;;;;;;;;;;;;;20.89;100.00;96201.34;5104603;28;19942;-81
2023/08/26 08:44:00;;;;;;;;;;;;;;;20.92;100.00;96208.78;5103589;28;20249;-73
2023/08/26 08:46:26;;;;;;;;;;;;;;;20.90;100.00;96194.97;5104578;28;20224;-74
2023/08/26 08:48:52;;;;;;;;;;;;;;;20.99;100.00;96211.09;5104428;28;19941;-75
2023/08/26 08:51:19;;;;;;;;;;;;;;;21.07;100.00;96210.44;5104498;28;19938;-76
2023/08/26 08:53:45;;;;;;;;;;;;;;;21.15;100.00;96211.66;5104520;28;19945;-76
2023/08/26 08:56:14;;;;;;;;;;;;;;;21.21;100.00;96168.59;5104556;28;19971;-75
2023/08/26 08:58:42;;;;;;;;;;;;;;;21.22;100.00;96180.84;5104884;28;19965;-75
2023/08/26 09:01:09;;;;;;;;;;;;;;;21.25;100.00;96198.13;5103194;28;19951;-73
2023/08/26 09:03:35;;;;;;;;;;;;;;;21.29;100.00;96191.94;5104839;28;19956;-79
2023/08/26 09:06:01;;;;;;;;;;;;;;;21.32;100.00;96200.44;5104267;28;20250;-84
2023/08/26 09:08:28;;;;;;;;;;;;;;;21.36;100.00;96188.09;5104193;28;19953;-83
2023/08/26 09:10:54;;;;;;;;;;;;;;;21.27;100.00;96177.28;5104161;28;19944;-77
2023/08/26 09:13:20;;;;;;;;;;;;;;;21.18;100.00;96176.38;5086569;28;19947;-78
2023/08/26 09:15:46;;;;;;;;;;;;;;;21.11;100.00;96176.78;5104041;28;19959;-78
2023/08/26 09:18:13;;;;;;;;;;;;;;;21.04;100.00;96182.47;5104076;28;19950;-77
2023/08/26 09:20:39;;;;;;;;;;;;;;;20.98;100.00;96202.31;5104148;28;19958;-78
2023/08/26 09:23:06;;;;;;;;;;;;;;;20.91;100.00;96190.41;5104959;28;19949;-75
2023/08/26 09:25:32;;;;;;;;;;;;;;;20.77;100.00;96201.81;5103993;28;19935;-74
2023/08/26 09:27:58;;;;;;;;;;;;;;;20.62;100.00;96192.19;5104018;28;19980;-76
2023/08/26 09:30:24;;;;;;;;;;;;;;;20.52;100.00;96197.63;5104008;28;19975;-74
2023/08/26 09:32:52;;;;;;;;;;;;;;;20.45;100.00;96197.97;5103892;28;19938;-74
2023/08/26 09:35:18;;;;;;;;;;;;;;;20.41;100.00;96188.97;5102222;28;19964;-73
2023/08/26 09:37:55;;;;;;;;;;;;;;;20.38;100.00;96192.19;5103879;28;19941;-76
2023/08/26 09:40:21;;;;;;;;;;;;;;;20.39;100.00;96190.31;5104511;28;19964;-76
2023/08/26 09:42:47;;;;;;;;;;;;;;;20.37;100.00;96195.94;5104204;28;20208;-76
2023/08/26 09:45:14;;;;;;;;;;;;;;;20.37;100.00;96184.47;5104796;28;19939;-76
2023/08/26 09:47:40;;;;;;;;;;;;;;;20.39;100.00;96180.47;5106967;28;19938;-76
2023/08/26 09:50:06;;;;;;;;;;;;;;;20.44;100.00;96167.06;5106577;28;19968;-76
2023/08/26 09:52:49;;;;;;;;;;;;;;;20.48;100.00;96157.44;5106196;28;19961;-76
2023/08/26 09:55:15;;;;;;;;;;;;;;;20.48;100.00;96164.63;5107716;28;20214;-74
2023/08/26 09:57:43;;;;;;;;;;;;;;;20.49;100.00;96171.53;5106301;28;19975;-75
2023/08/26 10:00:12;;;;;;;;;;;;;;;20.50;100.00;96167.03;5107259;28;19957;-73
2023/08/26 10:02:46;;;;;;;;;;;;;;;20.52;100.00;96168.31;5107373;28;19947;-73
2023/08/26 10:05:15;;;;;;;;;;;;;;;20.54;100.00;96170.69;5107334;28;19935;-72
2023/08/26 10:07:43;;;;;;;;;;;;;;;20.55;100.00;96167.72;5107087;28;19938;-73
2023/08/26 10:10:15;;;;;;;;;;;;;;;20.51;100.00;96174.69;5107481;28;19938;-73
2023/08/26 10:12:43;;;;;;;;;;;;;;;20.52;100.00;96183.50;5106965;28;19947;-73
2023/08/26 10:15:13;;;;;;;;;;;;;;;20.48;100.00;96181.41;5107177;28;19948;-76
2023/08/26 10:17:41;;;;;;;;;;;;;;;20.48;100.00;96184.06;5107066;28;20130;-73
2023/08/26 10:20:08;;;;;;;;;;;;;;;20.48;100.00;96181.41;5106920;28;20109;-73
2023/08/26 10:22:35;;;;;;;;;;;;;;;20.48;100.00;96186.72;5106859;28;19939;-72
2023/08/26 10:25:02;;;;;;;;;;;;;;;20.52;100.00;96189.63;5107578;28;19938;-73
2023/08/26 10:27:28;;;;;;;;;;;;;;;20.53;100.00;96195.72;5106369;28;19943;-73
2023/08/26 10:29:55;;;;;;;;;;;;;;;20.54;100.00;96200.00;5106975;28;20241;-73
2023/08/26 10:32:22;;;;;;;;;;;;;;;20.54;100.00;96192.78;5106693;28;19941;-78
2023/08/26 10:34:52;;;;;;;;;;;;;;;20.59;100.00;96199.94;5106869;28;19940;-82
2023/08/26 10:37:19;;;;;;;;;;;;;;;20.64;100.00;96205.19;5106912;28;19965;-71
2023/08/26 10:39:45;;;;;;;;;;;;;;;20.72;100.00;96187.78;5106672;28;19953;-71
2023/08/26 10:42:16;;;;;;;;;;;;;;;20.77;100.00;96185.81;5106610;28;19936;-71
2023/08/26 10:44:44;;;;;;;;;;;;;;;20.87;100.00;96187.53;5106491;28;19934;-72
2023/08/26 10:47:11;;;;;;;;;;;;;;;20.95;100.00;96186.09;5106537;28;19934;-71
2023/08/26 10:49:37;;;;;;;;;;;;;;;20.97;100.00;96184.72;5106200;28;20118;-71
2023/08/26 10:52:15;;;;;;;;;;;;;;;20.99;100.00;96192.44;5106505;28;19940;-79
2023/08/26 10:54:45;;;;;;;;;;;;;;;20.99;100.00;96182.53;5106105;28;19940;-71
2023/08/26 10:57:11;;;;;;;;;;;;;;;21.01;100.00;96188.38;5105655;28;19961;-70
2023/08/26 10:59:39;;;;;;;;;;;;;;;21.02;100.00;96184.66;5106238;28;19944;-70
2023/08/26 11:02:09;;;;;;;;;;;;;;;21.06;100.00;96166.16;5106241;28;19952;-70
2023/08/26 11:04:35;;;;;;;;;;;;;;;21.07;100.00;96160.56;5106138;28;19938;-71
2023/08/26 11:07:01;;;;;;;;;;;;;;;21.09;100.00;96162.94;5106777;28;19934;-72
2023/08/26 11:09:27;;;;;;;;;;;;;;;21.09;100.00;96176.28;5106792;28;19959;-72
2023/08/26 11:11:53;;;;;;;;;;;;;;;21.08;100.00;96175.47;5106006;28;19974;-76
2023/08/26 11:14:29;;;;;;;;;;;;;;;21.05;100.00;96170.72;5106011;28;20115;-74
2023/08/26 11:16:54;;;;;;;;;;;;;;;21.04;100.00;96181.66;5105526;28;19956;-74
2023/08/26 11:19:24;;;;;;;;;;;;;;;21.03;100.00;96174.75;5106332;28;19943;-75
2023/08/26 11:21:50;;;;;;;;;;;;;;;21.03;100.00;96162.22;5106213;28;19928;-74
2023/08/26 11:24:16;;;;;;;;;;;;;;;21.06;100.00;96160.84;5104638;28;19956;-74
2023/08/26 11:26:46;;;;;;;;;;;;;;;21.09;100.00;96165.59;5106567;28;19936;-74
2023/08/26 11:29:11;;;;;;;;;;;;;;;21.10;100.00;96175.19;5105688;28;19937;-79
2023/08/26 11:31:37;;;;;;;;;;;;;;;21.10;100.00;96183.16;5106485;28;20112;-73
2023/08/26 11:34:03;;;;;;;;;;;;;;;21.08;100.00;96180.00;5104334;28;19979;-74
2023/08/26 11:36:29;;;;;;;;;;;;;;;21.06;100.00;96179.50;5105541;28;19975;-74
2023/08/26 11:38:55;;;;;;;;;;;;;;;21.06;100.00;96179.50;5106375;28;19938;-73
2023/08/26 11:41:21;;;;;;;;;;;;;;;21.03;100.00;96166.78;5105488;28;19970;-74
2023/08/26 11:43:47;;;;;;;;;;;;;;;21.01;100.00;96169.72;5105918;28;19940;-74
2023/08/26 11:46:13;;;;;;;;;;;;;;;21.00;100.00;96191.34;5105315;28;19943;-77
2023/08/26 11:48:40;;;;;;;;;;;;;;;20.96;100.00;96199.13;5106520;28;20107;-78
2023/08/26 11:51:06;;;;;;;;;;;;;;;20.93;100.00;96202.38;5105601;28;19938;-73
2023/08/26 11:53:34;;;;;;;;;;;;;;;20.88;100.00;96205.91;5105021;28;19984;-73
2023/08/26 11:56:00;;;;;;;;;;;;;;;20.81;100.00;96188.69;5105214;28;19969;-73
2023/08/26 11:58:26;;;;;;;;;;;;;;;20.70;100.00;96190.72;5105982;28;19939;-74
2023/08/26 12:00:53;;;;;;;;;;;;;;;20.61;100.00;96182.59;5105522;28;19960;-73
2023/08/26 12:03:19;;;;;;;;;;;;;;;20.56;100.00;96190.63;5103958;28;19950;-72
2023/08/26 12:05:55;;;;;;;;;;;;;;;20.51;100.00;96195.22;5103844;28;19941;-73
2023/08/26 12:08:21;;;;;;;;;;;;;;;20.43;100.00;96186.81;5104323;28;19956;-74
2023/08/26 12:10:48;;;;;;;;;;;;;;;20.37;100.00;96208.44;5104923;28;20214;-74
2023/08/26 12:13:14;;;;;;;;;;;;;;;20.28;100.00;96221.63;5103738;28;19941;-73
2023/08/26 12:15:40;;;;;;;;;;;;;;;20.17;100.00;96233.47;5105841;28;20116;-75
2023/08/26 12:18:07;;;;;;;;;;;;;;;20.08;100.00;96233.31;5103944;28;19943;-74
2023/08/26 12:20:32;;;;;;;;;;;;;;;19.99;100.00;96230.50;5104707;28;19942;-73
2023/08/26 12:22:59;;;;;;;;;;;;;;;19.90;100.00;96220.72;5103864;28;19937;-79
2023/08/26 12:25:32;;;;;;;;;;;;;;;19.83;100.00;96221.84;5103890;28;20130;-78
2023/08/26 12:28:04;;;;;;;;;;;;;;;19.73;100.00;96210.53;5103769;28;19942;-73
2023/08/26 12:30:30;;;;;;;;;;;;;;;19.63;100.00;96198.09;5103686;28;20139;-73
2023/08/26 12:32:56;;;;;;;;;;;;;;;19.56;100.00;96179.03;5105398;28;19941;-73